createdAt,value
2022-09-15T00:00:32.087Z,6.80
2022-09-15T00:01:32.161Z,6.99
2022-09-15T00:02:32.266Z,6.24
2022-09-15T00:03:32.118Z,6.71
2022-09-15T00:04:32.138Z,6.61
2022-09-15T00:05:32.171Z,6.99
2022-09-15T00:06:32.188Z,6.89
2022-09-15T00:07:32.219Z,6.99
2022-09-15T00:08:32.239Z,6.99
2022-09-15T00:09:32.259Z,6.80
2022-09-15T00:10:32.279Z,7.63
2022-09-15T00:11:32.299Z,7.17
2022-09-15T00:12:32.331Z,6.80
2022-09-15T00:13:32.350Z,6.99
2022-09-15T00:14:32.371Z,6.89
2022-09-15T00:15:32.402Z,7.17
2022-09-15T00:16:32.431Z,7.26
2022-09-15T00:17:32.467Z,7.26
2022-09-15T00:18:32.482Z,7.36
2022-09-15T00:19:32.526Z,7.26
2022-09-15T00:20:32.542Z,7.54
2022-09-15T00:21:32.561Z,6.89
2022-09-15T00:22:32.585Z,7.26
2022-09-15T00:23:32.605Z,7.17
2022-09-15T00:24:32.635Z,7.26
2022-09-15T00:25:32.656Z,7.45
2022-09-15T00:26:32.681Z,7.63
2022-09-15T00:27:32.703Z,7.54
2022-09-15T00:28:32.715Z,7.45
2022-09-15T00:29:32.743Z,7.17
2022-09-15T00:30:32.828Z,7.17
2022-09-15T00:31:32.745Z,6.52
2022-09-15T00:32:32.766Z,7.17
2022-09-15T00:33:32.798Z,6.89
2022-09-15T00:34:32.807Z,7.17
2022-09-15T00:35:32.858Z,7.36
2022-09-15T00:36:32.877Z,7.17
2022-09-15T00:37:32.898Z,6.99
2022-09-15T00:38:32.928Z,7.17
2022-09-15T00:39:32.957Z,7.36
2022-09-15T00:40:33.074Z,7.36
2022-09-15T00:41:33.019Z,7.36
2022-09-15T00:42:33.038Z,7.26
2022-09-15T00:43:33.059Z,7.72
2022-09-15T00:44:33.070Z,7.17
2022-09-15T00:45:33.142Z,7.17
2022-09-15T00:46:33.172Z,7.17
2022-09-15T00:47:33.199Z,7.08
2022-09-15T00:48:33.223Z,7.72
2022-09-15T00:49:33.253Z,7.36
2022-09-15T00:50:33.287Z,7.17
2022-09-15T00:51:33.321Z,7.36
2022-09-15T00:52:33.361Z,7.54
2022-09-15T00:53:33.381Z,7.26
2022-09-15T00:54:33.411Z,7.26
2022-09-15T00:55:33.427Z,7.17
2022-09-15T00:56:33.453Z,7.45
2022-09-15T00:57:33.482Z,7.26
2022-09-15T00:58:33.503Z,7.63
2022-09-15T00:59:33.524Z,7.08
2022-09-15T01:00:33.543Z,7.36
2022-09-15T01:01:33.667Z,7.45
2022-09-15T01:02:33.770Z,6.71
2022-09-15T01:03:33.615Z,7.36
2022-09-15T01:04:33.634Z,7.17
2022-09-15T01:05:33.645Z,7.17
2022-09-15T01:06:33.670Z,7.17
2022-09-15T01:07:33.713Z,7.08
2022-09-15T01:08:33.717Z,6.80
2022-09-15T01:09:33.732Z,7.08
2022-09-15T01:10:33.746Z,6.99
2022-09-15T01:11:33.765Z,7.08
2022-09-15T01:12:33.795Z,7.26
2022-09-15T01:13:33.807Z,7.17
2022-09-15T01:14:33.838Z,7.63
2022-09-15T01:15:33.859Z,7.36
2022-09-15T01:16:33.917Z,7.45
2022-09-15T01:17:33.917Z,7.36
2022-09-15T01:18:33.947Z,7.54
2022-09-15T01:19:33.978Z,7.54
2022-09-15T01:20:34.001Z,7.90
2022-09-15T01:21:34.018Z,7.26
2022-09-15T01:22:34.059Z,7.63
2022-09-15T01:23:34.081Z,7.45
2022-09-15T01:24:34.100Z,7.63
2022-09-15T01:25:34.120Z,7.54
2022-09-15T01:26:34.146Z,7.08
2022-09-15T01:27:42.912Z,7.81
2022-09-15T01:28:34.231Z,7.45
2022-09-15T01:29:34.251Z,7.63
2022-09-15T01:30:34.273Z,7.72
2022-09-15T01:31:34.303Z,7.63
2022-09-15T01:32:34.323Z,7.81
2022-09-15T01:33:34.363Z,7.81
2022-09-15T01:34:34.393Z,7.63
2022-09-15T01:35:34.421Z,7.26
2022-09-15T01:36:34.452Z,7.81
2022-09-15T01:37:34.483Z,7.72
2022-09-15T01:38:34.523Z,8.18
2022-09-15T01:39:34.553Z,8.27
2022-09-15T01:40:34.664Z,7.81
2022-09-15T01:41:34.636Z,8.18
2022-09-15T01:42:34.669Z,7.54
2022-09-15T01:43:34.705Z,7.63
2022-09-15T01:44:34.734Z,7.72
2022-09-15T01:45:34.913Z,7.63
2022-09-15T01:46:34.791Z,7.81
2022-09-15T01:47:34.816Z,7.72
2022-09-15T01:48:34.866Z,7.81
2022-09-15T01:49:34.887Z,7.45
2022-09-15T01:50:34.919Z,7.08
2022-09-15T01:51:34.937Z,7.45
2022-09-15T01:52:34.957Z,7.26
2022-09-15T01:53:34.998Z,7.63
2022-09-15T01:54:35.028Z,7.72
2022-09-15T01:55:35.056Z,8.18
2022-09-15T01:56:35.088Z,7.72
2022-09-15T01:57:35.119Z,7.81
2022-09-15T01:58:35.143Z,7.72
2022-09-15T01:59:35.183Z,8.09
2022-09-15T02:00:35.202Z,7.63
2022-09-15T02:01:35.291Z,8.00
2022-09-15T02:02:35.293Z,8.18
2022-09-15T02:03:35.252Z,8.27
2022-09-15T02:04:35.292Z,8.00
2022-09-15T02:05:35.328Z,8.80
2022-09-15T02:06:35.350Z,7.72
2022-09-15T02:07:35.383Z,7.81
2022-09-15T02:08:35.403Z,8.00
2022-09-15T02:09:35.440Z,7.90
2022-09-15T02:10:35.476Z,8.45
2022-09-15T02:11:35.493Z,7.45
2022-09-15T02:12:35.523Z,8.09
2022-09-15T02:13:35.553Z,7.72
2022-09-15T02:14:35.606Z,7.54
2022-09-15T02:15:35.624Z,7.63
2022-09-15T02:16:35.746Z,7.54
2022-09-15T02:17:35.726Z,7.81
2022-09-15T02:18:35.747Z,7.72
2022-09-15T02:19:35.776Z,7.81
2022-09-15T02:20:35.813Z,7.90
2022-09-15T02:21:35.849Z,7.54
2022-09-15T02:22:35.877Z,7.45
2022-09-15T02:23:35.896Z,7.90
2022-09-15T02:24:35.917Z,7.72
2022-09-15T02:25:35.941Z,8.18
2022-09-15T02:26:35.967Z,7.72
2022-09-15T02:27:36.008Z,8.36
2022-09-15T02:28:36.038Z,7.36
2022-09-15T02:29:36.058Z,7.45
2022-09-15T02:30:36.078Z,7.81
2022-09-15T02:31:36.151Z,7.54
2022-09-15T02:32:36.120Z,7.54
2022-09-15T02:33:36.140Z,7.08
2022-09-15T02:34:36.161Z,7.90
2022-09-15T02:35:36.185Z,7.26
2022-09-15T02:36:36.202Z,7.81
2022-09-15T02:37:36.258Z,7.63
2022-09-15T02:38:36.271Z,7.72
2022-09-15T02:39:36.301Z,7.63
2022-09-15T02:40:36.313Z,7.45
2022-09-15T02:41:36.332Z,7.36
2022-09-15T02:42:36.374Z,7.63
2022-09-15T02:43:36.412Z,7.54
2022-09-15T02:44:36.453Z,7.54
2022-09-15T02:45:36.534Z,7.54
2022-09-15T02:46:36.472Z,7.45
2022-09-15T02:47:36.503Z,7.45
2022-09-15T02:48:36.544Z,7.54
2022-09-15T02:49:36.589Z,7.63
2022-09-15T02:50:36.623Z,7.72
2022-09-15T02:51:36.644Z,7.63
2022-09-15T02:52:36.665Z,6.89
2022-09-15T02:53:36.704Z,8.00
2022-09-15T02:54:36.733Z,7.26
2022-09-15T02:55:36.755Z,7.08
2022-09-15T02:56:36.805Z,7.26
2022-09-15T02:57:36.825Z,7.54
2022-09-15T02:58:36.844Z,7.54
2022-09-15T02:59:36.866Z,6.89
2022-09-15T03:00:36.944Z,7.08
2022-09-15T03:01:36.941Z,7.17
2022-09-15T03:02:36.897Z,7.26
2022-09-15T03:03:39.891Z,7.45
2022-09-15T03:04:36.977Z,7.45
2022-09-15T03:05:37.017Z,7.26
2022-09-15T03:06:37.078Z,7.45
2022-09-15T03:07:37.108Z,7.45
2022-09-15T03:08:37.139Z,7.17
2022-09-15T03:09:37.190Z,6.99
2022-09-15T03:10:37.227Z,7.17
2022-09-15T03:11:37.261Z,7.26
2022-09-15T03:12:37.299Z,7.26
2022-09-15T03:13:37.332Z,7.63
2022-09-15T03:14:37.361Z,7.36
2022-09-15T03:15:37.391Z,6.89
2022-09-15T03:16:37.442Z,7.36
2022-09-15T03:17:37.481Z,7.26
2022-09-15T03:18:37.522Z,7.45
2022-09-15T03:19:37.560Z,7.17
2022-09-15T03:20:37.582Z,7.17
2022-09-15T03:21:37.612Z,6.80
2022-09-15T03:22:37.633Z,6.80
2022-09-15T03:23:37.680Z,7.26
2022-09-15T03:24:37.702Z,6.61
2022-09-15T03:25:37.734Z,6.71
2022-09-15T03:26:37.766Z,6.52
2022-09-15T03:27:37.795Z,7.54
2022-09-15T03:28:37.833Z,7.45
2022-09-15T03:29:37.874Z,6.89
2022-09-15T03:30:37.902Z,6.99
2022-09-15T03:31:38.001Z,6.71
2022-09-15T03:32:37.946Z,6.61
2022-09-15T03:33:38.003Z,6.99
2022-09-15T03:34:38.036Z,7.08
2022-09-15T03:35:38.087Z,6.80
2022-09-15T03:36:38.134Z,7.08
2022-09-15T03:37:38.146Z,6.99
2022-09-15T03:38:38.176Z,7.36
2022-09-15T03:39:38.216Z,6.99
2022-09-15T03:40:38.247Z,6.43
2022-09-15T03:41:38.277Z,7.08
2022-09-15T03:42:38.307Z,6.71
2022-09-15T03:43:38.337Z,6.71
2022-09-15T03:44:38.379Z,6.71
2022-09-15T03:45:38.460Z,6.52
2022-09-15T03:46:38.418Z,6.24
2022-09-15T03:47:38.448Z,7.45
2022-09-15T03:48:38.480Z,7.08
2022-09-15T03:49:38.533Z,7.08
2022-09-15T03:50:38.549Z,6.52
2022-09-15T03:51:38.570Z,7.08
2022-09-15T03:52:38.641Z,6.89
2022-09-15T03:53:38.658Z,7.17
2022-09-15T03:54:38.693Z,6.89
2022-09-15T03:55:38.725Z,6.80
2022-09-15T03:56:38.746Z,7.17
2022-09-15T03:57:38.761Z,6.89
2022-09-15T03:58:38.794Z,7.08
2022-09-15T03:59:38.811Z,7.26
2022-09-15T04:00:38.860Z,7.54
2022-09-15T04:01:38.955Z,7.26
2022-09-15T04:02:38.920Z,7.45
2022-09-15T04:03:45.230Z,7.26
2022-09-15T04:04:38.942Z,7.26
2022-09-15T04:05:38.963Z,7.54
2022-09-15T04:06:39.000Z,7.17
2022-09-15T04:07:39.037Z,7.45
2022-09-15T04:08:39.055Z,7.17
2022-09-15T04:09:39.085Z,7.54
2022-09-15T04:10:39.095Z,7.08
2022-09-15T04:11:39.125Z,7.81
2022-09-15T04:12:39.155Z,7.26
2022-09-15T04:13:39.177Z,7.26
2022-09-15T04:14:39.214Z,7.36
2022-09-15T04:15:39.236Z,7.54
2022-09-15T04:16:39.332Z,7.72
2022-09-15T04:17:39.298Z,7.36
2022-09-15T04:18:39.307Z,7.63
2022-09-15T04:19:39.339Z,7.26
2022-09-15T04:20:39.366Z,7.54
2022-09-15T04:21:39.404Z,7.63
2022-09-15T04:22:39.418Z,7.26
2022-09-15T04:23:39.439Z,7.17
2022-09-15T04:24:39.470Z,7.54
2022-09-15T04:25:39.489Z,7.26
2022-09-15T04:26:39.519Z,7.08
2022-09-15T04:27:39.559Z,7.81
2022-09-15T04:28:39.579Z,7.36
2022-09-15T04:29:39.599Z,7.17
2022-09-15T04:30:39.610Z,7.08
2022-09-15T04:31:39.679Z,7.17
2022-09-15T04:32:39.641Z,7.45
2022-09-15T04:33:39.651Z,7.90
2022-09-15T04:34:41.476Z,7.36
2022-09-15T04:35:39.731Z,6.89
2022-09-15T04:36:39.753Z,6.89
2022-09-15T04:37:39.792Z,7.17
2022-09-15T04:38:39.828Z,7.45
2022-09-15T04:39:39.844Z,6.99
2022-09-15T04:40:39.853Z,6.80
2022-09-15T04:41:39.871Z,7.26
2022-09-15T04:42:39.895Z,6.99
2022-09-15T04:43:39.937Z,7.08
2022-09-15T04:44:39.967Z,7.63
2022-09-15T04:45:40.015Z,7.17
2022-09-15T04:46:40.115Z,7.08
2022-09-15T04:47:40.023Z,7.26
2022-09-15T04:48:40.057Z,7.45
2022-09-15T04:49:40.115Z,7.54
2022-09-15T04:50:40.176Z,7.36
2022-09-15T04:51:40.218Z,7.08
2022-09-15T04:52:40.267Z,6.99
2022-09-15T04:53:40.317Z,7.54
2022-09-15T04:54:40.367Z,6.99
2022-09-15T04:55:40.427Z,7.17
2022-09-15T04:56:40.489Z,6.99
2022-09-15T04:57:40.538Z,6.43
2022-09-15T04:58:40.588Z,6.99
2022-09-15T04:59:40.637Z,7.17
2022-09-15T05:00:40.724Z,6.80
2022-09-15T05:01:40.737Z,6.99
2022-09-15T05:02:40.741Z,6.89
2022-09-15T05:03:40.760Z,7.08
2022-09-15T05:04:40.790Z,6.61
2022-09-15T05:05:40.831Z,7.08
2022-09-15T05:06:40.858Z,6.71
2022-09-15T05:07:40.905Z,7.36
2022-09-15T05:08:40.930Z,6.99
2022-09-15T05:09:40.963Z,6.71
2022-09-15T05:10:40.983Z,7.08
2022-09-15T05:11:41.022Z,6.99
2022-09-15T05:12:41.082Z,6.80
2022-09-15T05:13:41.123Z,6.80
2022-09-15T05:14:41.173Z,6.80
2022-09-15T05:15:41.222Z,6.80
2022-09-15T05:16:41.329Z,7.08
2022-09-15T05:17:41.324Z,7.08
2022-09-15T05:18:41.337Z,7.26
2022-09-15T05:19:41.326Z,7.08
2022-09-15T05:20:41.314Z,7.54
2022-09-15T05:21:41.305Z,7.17
2022-09-15T05:22:42.084Z,7.26
2022-09-15T05:23:41.356Z,6.99
2022-09-15T05:24:41.345Z,7.26
2022-09-15T05:25:41.387Z,6.80
2022-09-15T05:26:41.416Z,7.26
2022-09-15T05:27:41.599Z,6.99
2022-09-15T05:28:41.478Z,7.26
2022-09-15T05:29:41.518Z,6.99
2022-09-15T05:30:44.225Z,7.36
2022-09-15T05:31:41.675Z,7.36
2022-09-15T05:32:41.680Z,7.72
2022-09-15T05:33:41.673Z,7.54
2022-09-15T05:34:41.662Z,7.36
2022-09-15T05:35:41.639Z,7.36
2022-09-15T05:36:41.799Z,7.36
2022-09-15T05:37:41.740Z,7.63
2022-09-15T05:38:41.855Z,7.17
2022-09-15T05:39:41.770Z,7.81
2022-09-15T05:40:41.841Z,7.26
2022-09-15T05:41:41.840Z,6.71
2022-09-15T05:42:41.849Z,7.36
2022-09-15T05:43:41.911Z,7.36
2022-09-15T05:44:41.933Z,7.54
2022-09-15T05:45:41.983Z,7.26
2022-09-15T05:46:42.045Z,6.80
2022-09-15T05:47:42.015Z,6.99
2022-09-15T05:48:42.022Z,6.99
2022-09-15T05:49:42.013Z,7.36
2022-09-15T05:50:42.015Z,6.99
2022-09-15T05:51:42.025Z,6.99
2022-09-15T05:52:42.014Z,7.36
2022-09-15T05:53:42.169Z,7.63
2022-09-15T05:54:42.136Z,7.36
2022-09-15T05:55:42.155Z,7.26
2022-09-15T05:56:42.204Z,6.71
2022-09-15T05:57:42.235Z,7.17
2022-09-15T05:58:42.247Z,6.89
2022-09-15T05:59:42.276Z,7.26
2022-09-15T06:00:42.296Z,7.17
2022-09-15T06:01:42.365Z,6.99
2022-09-15T06:02:42.393Z,7.17
2022-09-15T06:03:42.387Z,6.80
2022-09-15T06:04:42.429Z,7.45
2022-09-15T06:05:42.459Z,6.52
2022-09-15T06:06:42.478Z,6.80
2022-09-15T06:07:42.478Z,6.89
2022-09-15T06:08:44.236Z,6.33
2022-09-15T06:09:42.559Z,6.43
2022-09-15T06:10:42.560Z,6.71
2022-09-15T06:11:42.579Z,6.43
2022-09-15T06:12:42.601Z,6.24
2022-09-15T06:13:42.629Z,5.38
2022-09-15T06:14:42.659Z,6.52
2022-09-15T06:15:42.712Z,6.89
2022-09-15T06:16:42.680Z,6.80
2022-09-15T06:17:42.668Z,6.80
2022-09-15T06:18:42.682Z,6.89
2022-09-15T06:19:42.702Z,6.89
2022-09-15T06:20:42.684Z,7.17
2022-09-15T06:21:42.776Z,7.26
2022-09-15T06:22:42.802Z,7.54
2022-09-15T06:23:45.008Z,7.26
2022-09-15T06:24:42.854Z,7.08
2022-09-15T06:25:42.853Z,7.17
2022-09-15T06:26:42.913Z,7.17
2022-09-15T06:27:42.995Z,7.26
2022-09-15T06:28:43.005Z,6.89
2022-09-15T06:29:43.013Z,7.08
2022-09-15T06:30:43.037Z,7.26
2022-09-15T06:31:43.095Z,6.71
2022-09-15T06:32:47.380Z,6.80
2022-09-15T06:33:43.179Z,6.89
2022-09-15T06:34:43.166Z,7.45
2022-09-15T06:35:43.226Z,6.99
2022-09-15T06:36:43.238Z,7.08
2022-09-15T06:37:43.298Z,6.99
2022-09-15T06:38:43.347Z,7.26
2022-09-15T06:39:43.387Z,6.99
2022-09-15T06:40:43.447Z,7.36
2022-09-15T06:42:01.145Z,7.26
2022-09-15T06:42:43.459Z,6.89
2022-09-15T06:43:43.499Z,6.89
2022-09-15T06:44:43.539Z,7.26
2022-09-15T06:45:43.589Z,7.17
2022-09-15T06:46:43.620Z,7.36
2022-09-15T06:47:43.653Z,7.26
2022-09-15T06:48:47.557Z,7.26
2022-09-15T06:49:43.701Z,7.26
2022-09-15T06:50:43.760Z,6.99
2022-09-15T06:51:43.801Z,7.08
2022-09-15T06:52:43.812Z,6.71
2022-09-15T06:53:43.812Z,7.17
2022-09-15T06:54:43.883Z,6.89
2022-09-15T06:55:43.934Z,6.99
2022-09-15T06:56:43.962Z,7.26
2022-09-15T06:57:43.983Z,7.36
2022-09-15T06:58:43.994Z,6.99
2022-09-15T06:59:43.974Z,7.45
2022-09-15T07:00:44.004Z,6.99
2022-09-15T07:01:44.016Z,6.99
2022-09-15T07:02:44.180Z,7.45
2022-09-15T07:03:44.174Z,7.45
2022-09-15T07:04:44.145Z,7.54
2022-09-15T07:05:44.191Z,7.54
2022-09-15T07:06:44.206Z,7.17
2022-09-15T07:07:44.266Z,7.45
2022-09-15T07:08:44.423Z,6.99
2022-09-15T07:09:48.423Z,7.17
2022-09-15T07:10:44.377Z,6.99
2022-09-15T07:11:44.348Z,6.89
2022-09-15T07:12:44.398Z,7.17
2022-09-15T07:13:44.499Z,7.45
2022-09-15T07:14:44.556Z,7.26
2022-09-15T07:15:44.499Z,6.99
2022-09-15T07:16:44.603Z,7.54
2022-09-15T07:17:44.580Z,7.08
2022-09-15T07:18:44.612Z,7.08
2022-09-15T07:19:44.620Z,7.63
2022-09-15T07:20:44.650Z,6.71
2022-09-15T07:21:44.720Z,6.61
2022-09-15T07:22:44.744Z,7.36
2022-09-15T07:23:44.906Z,7.90
2022-09-15T07:24:44.817Z,7.36
2022-09-15T07:25:44.831Z,7.08
2022-09-15T07:26:44.901Z,6.61
2022-09-15T07:27:44.932Z,7.08
2022-09-15T07:28:44.960Z,7.26
2022-09-15T07:29:44.964Z,6.61
2022-09-15T07:30:45.003Z,6.71
2022-09-15T07:31:45.117Z,6.99
2022-09-15T07:32:45.125Z,6.61
2022-09-15T07:33:45.208Z,7.17
2022-09-15T07:34:45.239Z,6.99
2022-09-15T07:35:45.282Z,7.08
2022-09-15T07:36:45.342Z,7.17
2022-09-15T07:37:45.406Z,7.26
2022-09-15T07:38:45.455Z,6.89
2022-09-15T07:39:45.506Z,7.17
2022-09-15T07:40:45.477Z,7.17
2022-09-15T07:41:45.518Z,6.61
2022-09-15T07:42:45.547Z,6.71
2022-09-15T07:45:11.649Z,8.62
2022-09-15T07:46:11.714Z,6.71
2022-09-15T07:47:11.694Z,6.80
2022-09-15T07:48:11.732Z,6.71
2022-09-15T07:49:11.745Z,6.33
2022-09-15T07:50:11.780Z,7.36
2022-09-15T07:51:11.804Z,7.17
2022-09-15T07:52:11.828Z,6.33
2022-09-15T07:53:28.361Z,6.52
2022-09-15T07:54:11.948Z,6.80
2022-09-15T07:55:11.986Z,6.61
2022-09-15T07:56:12.028Z,7.81
2022-09-15T07:57:13.021Z,8.00
2022-09-15T07:58:12.129Z,7.63
2022-09-15T07:59:12.191Z,7.17
2022-09-15T08:00:12.160Z,7.36
2022-09-15T08:01:12.276Z,7.08
2022-09-15T08:02:13.202Z,7.72
2022-09-15T08:03:12.280Z,6.61
2022-09-15T08:04:12.311Z,6.80
2022-09-15T08:05:12.344Z,6.24
2022-09-15T08:06:12.350Z,6.14
2022-09-15T08:07:12.352Z,6.61
2022-09-15T08:08:12.441Z,6.71
2022-09-15T08:09:12.392Z,7.08
2022-09-15T08:10:12.412Z,6.80
2022-09-15T08:11:17.682Z,6.24
2022-09-15T08:12:12.443Z,6.71
2022-09-15T08:13:12.513Z,6.33
2022-09-15T08:14:12.554Z,6.33
2022-09-15T08:15:12.584Z,5.86
2022-09-15T08:16:12.663Z,7.54
2022-09-15T08:17:12.631Z,6.61
2022-09-15T08:18:12.606Z,6.05
2022-09-15T08:19:12.685Z,6.99
2022-09-15T08:20:12.715Z,6.71
2022-09-15T08:21:12.784Z,5.28
2022-09-15T08:22:12.806Z,5.76
2022-09-15T08:23:12.857Z,6.24
2022-09-15T08:24:12.915Z,6.14
2022-09-15T08:25:12.957Z,5.76
2022-09-15T08:26:14.303Z,7.08
2022-09-15T08:27:13.080Z,5.76
2022-09-15T08:28:13.130Z,6.05
2022-09-15T08:29:13.198Z,5.76
2022-09-15T08:30:13.240Z,6.05
2022-09-15T08:31:13.351Z,5.48
2022-09-15T08:32:13.355Z,5.09
2022-09-15T08:33:13.413Z,5.48
2022-09-15T08:34:13.460Z,5.19
2022-09-15T08:35:13.511Z,5.67
2022-09-15T08:36:13.616Z,7.72
2022-09-15T08:37:13.573Z,5.09
2022-09-15T08:38:13.622Z,4.89
2022-09-15T08:39:13.670Z,5.67
2022-09-15T08:40:13.809Z,6.33
2022-09-15T08:41:13.743Z,4.40
2022-09-15T08:42:13.793Z,5.67
2022-09-15T08:43:13.866Z,5.19
2022-09-15T08:44:13.845Z,4.21
2022-09-15T08:45:13.865Z,6.14
2022-09-15T08:46:13.949Z,5.28
2022-09-15T08:47:13.936Z,6.14
2022-09-15T08:48:13.974Z,6.05
2022-09-15T08:49:13.996Z,7.45
2022-09-15T08:50:13.996Z,6.52
2022-09-15T08:51:14.007Z,8.00
2022-09-15T08:52:13.997Z,6.24
2022-09-15T08:53:14.092Z,7.26
2022-09-15T08:54:14.113Z,5.38
2022-09-15T08:55:14.131Z,4.40
2022-09-15T08:56:14.163Z,6.80
2022-09-15T08:57:14.179Z,4.50
2022-09-15T08:58:14.178Z,4.89
2022-09-15T08:59:15.129Z,3.10
2022-09-15T09:00:14.204Z,4.80
2022-09-15T09:01:14.281Z,4.11
2022-09-15T09:02:14.212Z,5.09
2022-09-15T09:03:14.312Z,7.08
2022-09-15T09:04:17.956Z,5.28
2022-09-15T09:05:14.315Z,5.57
2022-09-15T09:06:14.343Z,5.28
2022-09-15T09:07:14.350Z,8.00
2022-09-15T09:08:14.345Z,5.48
2022-09-15T09:09:14.377Z,4.99
2022-09-15T09:10:14.333Z,4.99
2022-09-15T09:11:14.397Z,6.14
2022-09-15T09:12:14.456Z,6.89
2022-09-15T09:13:14.446Z,7.36
2022-09-15T09:14:14.452Z,5.19
2022-09-15T09:15:14.429Z,6.43
2022-09-15T09:16:14.547Z,6.33
2022-09-15T09:17:14.892Z,4.21
2022-09-15T09:18:14.499Z,5.38
2022-09-15T09:19:14.529Z,6.14
2022-09-15T09:20:14.598Z,5.48
2022-09-15T09:21:14.590Z,5.67
2022-09-15T09:22:14.607Z,5.48
2022-09-15T09:23:14.641Z,5.48
2022-09-15T09:24:14.650Z,4.80
2022-09-15T09:25:26.724Z,5.76
2022-09-15T09:26:14.705Z,6.89
2022-09-15T09:27:14.781Z,6.52
2022-09-15T09:28:14.865Z,8.00
2022-09-15T09:29:14.824Z,8.80
2022-09-15T09:30:14.825Z,8.36
2022-09-15T09:31:14.904Z,7.08
2022-09-15T09:32:16.848Z,7.81
2022-09-15T09:33:14.994Z,6.14
2022-09-15T09:34:14.986Z,8.53
2022-09-15T09:35:14.976Z,6.99
2022-09-15T09:36:15.045Z,7.45
2022-09-15T09:37:15.819Z,8.36
2022-09-15T09:38:15.078Z,10.28
2022-09-15T09:39:15.071Z,6.89
2022-09-15T09:40:15.149Z,1.96
2022-09-15T09:41:15.137Z,2.38
2022-09-15T09:42:15.180Z,1.33
2022-09-15T09:43:15.261Z,1.96
2022-09-15T09:44:15.300Z,3.91
2022-09-15T09:45:15.361Z,4.40
2022-09-15T09:46:15.466Z,1.12
2022-09-15T09:47:15.404Z,3.10
2022-09-15T09:48:15.464Z,0.47
2022-09-15T09:49:15.473Z,1.44
2022-09-15T09:50:15.510Z,3.51
2022-09-15T09:51:15.533Z,0.69
2022-09-15T09:52:18.919Z,0.80
2022-09-15T09:53:15.575Z,1.33
2022-09-15T09:54:15.597Z,1.44
2022-09-15T09:55:15.647Z,3.51
2022-09-15T09:56:15.688Z,0.00
2022-09-15T09:57:15.684Z,1.01
2022-09-15T09:58:15.745Z,1.12
2022-09-15T09:59:15.787Z,0.69
2022-09-15T10:00:15.808Z,1.65
2022-09-15T10:01:15.994Z,1.65
2022-09-15T10:02:15.937Z,5.38
2022-09-15T10:03:15.988Z,3.61
2022-09-15T10:04:16.035Z,1.65
2022-09-15T10:05:16.847Z,2.69
2022-09-15T10:06:16.068Z,6.05
2022-09-15T10:07:16.061Z,4.89
2022-09-15T10:08:16.061Z,2.28
2022-09-15T10:09:16.100Z,1.96
2022-09-15T10:10:16.140Z,3.20
2022-09-15T10:11:16.121Z,1.22
2022-09-15T10:12:16.132Z,2.90
2022-09-15T10:13:16.271Z,0.00
2022-09-15T10:14:16.245Z,4.80
2022-09-15T10:15:16.293Z,0.80
2022-09-15T10:16:16.346Z,1.22
2022-09-15T10:17:16.318Z,4.50
2022-09-15T10:18:16.381Z,2.90
2022-09-15T10:19:16.384Z,3.20
2022-09-15T10:20:16.446Z,5.86
2022-09-15T10:21:16.455Z,1.22
2022-09-15T10:22:16.498Z,1.75
2022-09-15T10:23:16.550Z,0.47
2022-09-15T10:24:18.194Z,5.48
2022-09-15T10:25:16.625Z,1.33
2022-09-15T10:26:16.706Z,2.38
2022-09-15T10:27:16.718Z,5.19
2022-09-15T10:28:16.771Z,3.81
2022-09-15T10:29:16.829Z,2.79
2022-09-15T10:30:16.870Z,0.00
2022-09-15T10:31:16.930Z,0.80
2022-09-15T10:32:16.946Z,0.90
2022-09-15T10:33:16.951Z,2.17
2022-09-15T10:34:17.003Z,2.79
2022-09-15T10:35:16.992Z,2.28
2022-09-15T10:36:17.003Z,0.00
2022-09-15T10:37:17.072Z,1.96
2022-09-15T10:38:17.083Z,3.00
2022-09-15T10:39:17.094Z,3.20
2022-09-15T10:40:17.212Z,2.69
2022-09-15T10:41:17.175Z,0.00
2022-09-15T10:42:17.199Z,0.00
2022-09-15T10:43:17.248Z,3.10
2022-09-15T10:44:17.247Z,0.00
2022-09-15T10:45:17.326Z,1.65
2022-09-15T10:46:17.402Z,2.90
2022-09-15T10:47:17.339Z,1.86
2022-09-15T10:48:17.388Z,4.11
2022-09-15T10:49:17.389Z,0.69
2022-09-15T10:50:17.430Z,0.58
2022-09-15T10:51:17.429Z,3.10
2022-09-15T10:52:17.541Z,6.05
2022-09-15T10:53:17.475Z,4.89
2022-09-15T10:54:17.461Z,3.71
2022-09-15T10:55:27.631Z,5.19
2022-09-15T10:56:17.552Z,1.44
2022-09-15T10:57:17.635Z,2.90
2022-09-15T10:58:17.532Z,3.61
2022-09-15T10:59:17.524Z,1.96
2022-09-15T11:00:17.573Z,3.10
2022-09-15T11:01:17.669Z,3.10
2022-09-15T11:02:17.681Z,2.17
2022-09-15T11:03:17.613Z,4.40
2022-09-15T11:04:17.666Z,2.59
2022-09-15T11:05:22.773Z,3.61
2022-09-15T11:06:17.746Z,2.17
2022-09-15T11:07:17.786Z,2.28
2022-09-15T11:08:17.812Z,4.50
2022-09-15T11:09:17.796Z,0.00
2022-09-15T11:10:17.858Z,0.00
2022-09-15T11:11:17.848Z,0.00
2022-09-15T11:12:17.918Z,1.96
2022-09-15T11:13:17.891Z,3.30
2022-09-15T11:14:17.905Z,0.80
2022-09-15T11:15:17.910Z,1.75
2022-09-15T11:16:18.076Z,2.07
2022-09-15T11:17:17.995Z,1.96
2022-09-15T11:18:18.042Z,0.00
2022-09-15T11:19:18.110Z,1.96
2022-09-15T11:20:18.111Z,2.28
2022-09-15T11:21:18.167Z,2.38
2022-09-15T11:22:18.213Z,1.54
2022-09-15T11:23:18.213Z,5.09
2022-09-15T11:24:18.273Z,2.28
2022-09-15T11:25:18.313Z,2.07
2022-09-15T11:26:18.367Z,5.28
2022-09-15T11:27:18.424Z,3.51
2022-09-15T11:28:18.464Z,0.00
2022-09-15T11:29:18.516Z,0.00
2022-09-15T11:30:18.506Z,7.08
2022-09-15T11:31:18.621Z,2.17
2022-09-15T11:32:18.568Z,2.17
2022-09-15T11:33:18.638Z,3.20
2022-09-15T11:34:18.677Z,2.07
2022-09-15T11:35:18.728Z,2.07
2022-09-15T11:36:18.768Z,2.69
2022-09-15T11:37:18.830Z,3.71
2022-09-15T11:38:18.919Z,1.01
2022-09-15T11:39:19.057Z,4.80
2022-09-15T11:40:19.027Z,2.38
2022-09-15T11:41:19.016Z,3.71
2022-09-15T11:42:19.138Z,2.07
2022-09-15T11:43:19.134Z,0.80
2022-09-15T11:44:19.175Z,1.22
2022-09-15T11:45:19.234Z,2.07
2022-09-15T11:46:19.307Z,3.40
2022-09-15T11:47:19.233Z,3.20
2022-09-15T11:48:19.224Z,3.40
2022-09-15T11:49:19.298Z,1.01
2022-09-15T11:50:19.288Z,4.30
2022-09-15T11:51:19.473Z,0.00
2022-09-15T11:52:19.311Z,3.81
2022-09-15T11:53:19.373Z,1.22
2022-09-15T11:54:19.345Z,3.10
2022-09-15T11:55:19.405Z,6.99
2022-09-15T11:56:19.478Z,4.11
2022-09-15T11:57:19.539Z,3.10
2022-09-15T11:58:22.081Z,4.30
2022-09-15T11:59:19.628Z,3.51
2022-09-15T12:00:19.690Z,1.12
2022-09-15T12:01:19.699Z,3.20
2022-09-15T12:02:19.876Z,3.51
2022-09-15T12:03:19.857Z,1.01
2022-09-15T12:04:19.886Z,3.10
2022-09-15T12:05:19.895Z,2.90
2022-09-15T12:06:19.950Z,4.50
2022-09-15T12:07:20.010Z,3.30
2022-09-15T12:08:19.992Z,0.00
2022-09-15T12:09:20.034Z,3.30
2022-09-15T12:10:20.084Z,0.80
2022-09-15T12:11:20.149Z,2.07
2022-09-15T12:12:20.184Z,4.21
2022-09-15T12:13:20.179Z,0.00
2022-09-15T12:14:20.225Z,2.90
2022-09-15T12:15:20.204Z,3.71
2022-09-15T12:16:20.376Z,3.81
2022-09-15T12:17:20.296Z,1.86
2022-09-15T12:18:37.822Z,2.79
2022-09-15T12:19:20.356Z,2.90
2022-09-15T12:20:20.359Z,0.00
2022-09-15T12:21:20.427Z,3.81
2022-09-15T12:22:20.396Z,1.22
2022-09-15T12:23:20.438Z,1.44
2022-09-15T12:24:20.459Z,0.47
2022-09-15T12:25:20.489Z,0.69
2022-09-15T12:26:20.520Z,3.30
2022-09-15T12:27:20.596Z,3.30
2022-09-15T12:28:20.590Z,2.48
2022-09-15T12:29:20.601Z,2.17
2022-09-15T12:30:20.720Z,2.17
2022-09-15T12:31:21.079Z,0.47
2022-09-15T12:32:20.703Z,2.48
2022-09-15T12:33:20.764Z,0.00
2022-09-15T12:34:20.983Z,3.00
2022-09-15T12:35:20.814Z,0.00
2022-09-15T12:36:20.954Z,4.50
2022-09-15T12:37:20.865Z,0.00
2022-09-15T12:38:20.950Z,3.10
2022-09-15T12:39:20.903Z,0.00
2022-09-15T12:40:21.036Z,0.69
2022-09-15T12:41:20.974Z,0.00
2022-09-15T12:42:21.015Z,2.28
2022-09-15T12:43:21.058Z,1.86
2022-09-15T12:44:21.088Z,2.28
2022-09-15T12:45:21.152Z,1.65
2022-09-15T12:46:21.220Z,4.99
2022-09-15T12:47:21.243Z,0.00
2022-09-15T12:48:21.305Z,3.40
2022-09-15T12:49:21.300Z,0.00
2022-09-15T12:50:21.312Z,2.79
2022-09-15T12:51:21.360Z,2.48
2022-09-15T12:52:21.400Z,3.40
2022-09-15T12:53:21.435Z,0.00
2022-09-15T12:54:21.453Z,0.80
2022-09-15T12:55:21.533Z,4.80
2022-09-15T12:56:21.572Z,0.58
2022-09-15T12:57:21.632Z,1.54
2022-09-15T12:58:23.244Z,2.59
2022-09-15T12:59:21.713Z,0.00
2022-09-15T13:00:21.763Z,0.58
2022-09-15T13:01:21.907Z,4.80
2022-09-15T13:02:21.942Z,2.07
2022-09-15T13:03:22.040Z,3.51
2022-09-15T13:04:21.937Z,1.22
2022-09-15T13:05:21.996Z,1.86
2022-09-15T13:06:22.067Z,3.10
2022-09-15T13:07:22.089Z,4.50
2022-09-15T13:08:22.167Z,2.07
2022-09-15T13:09:22.136Z,1.54
2022-09-15T13:10:22.225Z,2.59
2022-09-15T13:11:22.227Z,0.00
2022-09-15T13:12:22.240Z,1.86
2022-09-15T13:13:22.308Z,2.28
2022-09-15T13:14:22.323Z,1.75
2022-09-15T13:15:22.360Z,2.79
2022-09-15T13:16:22.369Z,3.81
2022-09-15T13:17:22.401Z,3.91
2022-09-15T13:18:22.451Z,1.01
2022-09-15T13:19:22.488Z,3.00
2022-09-15T13:20:22.531Z,1.96